sensor_id;sensor_type;location;lat;lon;timestamp;P1;durP1;ratioP1;P2;durP2;ratioP2
43552;SDS011;29153;42.696;23.218;2022-08-01T00:01:39;5.33;;;4.83;;
43552;SDS011;29153;42.696;23.218;2022-08-01T00:04:06;7.17;;;4.55;;
43552;SDS011;29153;42.696;23.218;2022-08-01T00:06:34;4.85;;;4.35;;
43552;SDS011;29153;42.696;23.218;2022-08-01T00:09:01;5.97;;;4.90;;
43552;SDS011;29153;42.696;23.218;2022-08-01T00:11:29;15.32;;;4.75;;
43552;SDS011;29153;42.696;23.218;2022-08-01T00:13:57;14.78;;;4.78;;
43552;SDS011;29153;42.696;23.218;2022-08-01T00:16:24;7.15;;;4.87;;
43552;SDS011;29153;42.696;23.218;2022-08-01T00:18:52;5.67;;;4.35;;
43552;SDS011;29153;42.696;23.218;2022-08-01T00:21:21;7.10;;;4.85;;
43552;SDS011;29153;42.696;23.218;2022-08-01T00:23:48;5.65;;;4.47;;
43552;SDS011;29153;42.696;23.218;2022-08-01T00:26:16;5.37;;;4.00;;
43552;SDS011;29153;42.696;23.218;2022-08-01T00:28:44;9.63;;;4.65;;
43552;SDS011;29153;42.696;23.218;2022-08-01T00:31:11;4.78;;;4.10;;
43552;SDS011;29153;42.696;23.218;2022-08-01T00:33:39;5.15;;;4.10;;
43552;SDS011;29153;42.696;23.218;2022-08-01T00:36:06;5.12;;;3.77;;
43552;SDS011;29153;42.696;23.218;2022-08-01T00:38:34;9.43;;;4.03;;
43552;SDS011;29153;42.696;23.218;2022-08-01T00:41:01;6.33;;;4.22;;
43552;SDS011;29153;42.696;23.218;2022-08-01T00:43:29;8.95;;;4.30;;
43552;SDS011;29153;42.696;23.218;2022-08-01T00:45:57;7.60;;;4.20;;
43552;SDS011;29153;42.696;23.218;2022-08-01T00:48:24;5.42;;;4.03;;
43552;SDS011;29153;42.696;23.218;2022-08-01T00:50:52;9.23;;;4.15;;
43552;SDS011;29153;42.696;23.218;2022-08-01T00:53:19;5.47;;;4.00;;
43552;SDS011;29153;42.696;23.218;2022-08-01T00:55:48;8.03;;;4.10;;
43552;SDS011;29153;42.696;23.218;2022-08-01T00:58:16;4.70;;;3.70;;
43552;SDS011;29153;42.696;23.218;2022-08-01T01:00:44;4.75;;;3.85;;
43552;SDS011;29153;42.696;23.218;2022-08-01T01:03:11;6.30;;;4.30;;
43552;SDS011;29153;42.696;23.218;2022-08-01T01:05:41;4.30;;;3.90;;
43552;SDS011;29153;42.696;23.218;2022-08-01T01:08:22;9.45;;;3.62;;
43552;SDS011;29153;42.696;23.218;2022-08-01T01:10:47;4.50;;;3.83;;
43552;SDS011;29153;42.696;23.218;2022-08-01T01:13:18;6.75;;;3.75;;
43552;SDS011;29153;42.696;23.218;2022-08-01T01:16:00;3.85;;;3.50;;
43552;SDS011;29153;42.696;23.218;2022-08-01T01:18:30;5.97;;;3.40;;
43552;SDS011;29153;42.696;23.218;2022-08-01T01:21:14;5.45;;;3.60;;
43552;SDS011;29153;42.696;23.218;2022-08-01T01:23:59;9.13;;;3.72;;
43552;SDS011;29153;42.696;23.218;2022-08-01T01:29:32;5.97;;;3.90;;
43552;SDS011;29153;42.696;23.218;2022-08-01T01:32:04;7.50;;;3.52;;
43552;SDS011;29153;42.696;23.218;2022-08-01T01:34:40;3.77;;;3.47;;
43552;SDS011;29153;42.696;23.218;2022-08-01T01:37:06;7.28;;;3.60;;
43552;SDS011;29153;42.696;23.218;2022-08-01T01:39:36;9.83;;;4.47;;
43552;SDS011;29153;42.696;23.218;2022-08-01T01:42:05;3.60;;;3.27;;
43552;SDS011;29153;42.696;23.218;2022-08-01T01:44:34;6.72;;;3.47;;
43552;SDS011;29153;42.696;23.218;2022-08-01T01:47:05;5.40;;;3.80;;
43552;SDS011;29153;42.696;23.218;2022-08-01T01:49:33;3.90;;;3.15;;
43552;SDS011;29153;42.696;23.218;2022-08-01T01:52:01;6.28;;;3.22;;
43552;SDS011;29153;42.696;23.218;2022-08-01T01:54:33;3.45;;;3.15;;
43552;SDS011;29153;42.696;23.218;2022-08-01T01:57:05;6.40;;;3.50;;
43552;SDS011;29153;42.696;23.218;2022-08-01T01:59:36;3.85;;;3.37;;
43552;SDS011;29153;42.696;23.218;2022-08-01T02:02:06;7.42;;;2.92;;
43552;SDS011;29153;42.696;23.218;2022-08-01T02:04:37;5.65;;;3.00;;
43552;SDS011;29153;42.696;23.218;2022-08-01T02:07:11;8.15;;;3.17;;
43552;SDS011;29153;42.696;23.218;2022-08-01T02:09:41;5.50;;;2.60;;
43552;SDS011;29153;42.696;23.218;2022-08-01T02:12:12;3.08;;;2.47;;
43552;SDS011;29153;42.696;23.218;2022-08-01T02:14:42;2.65;;;2.45;;
43552;SDS011;29153;42.696;23.218;2022-08-01T02:17:11;2.75;;;2.37;;
43552;SDS011;29153;42.696;23.218;2022-08-01T02:19:40;5.05;;;3.08;;
43552;SDS011;29153;42.696;23.218;2022-08-01T02:22:14;6.50;;;2.72;;
43552;SDS011;29153;42.696;23.218;2022-08-01T02:24:55;4.67;;;2.35;;
43552;SDS011;29153;42.696;23.218;2022-08-01T02:27:34;2.37;;;2.17;;
43552;SDS011;29153;42.696;23.218;2022-08-01T02:30:07;3.52;;;2.40;;
43552;SDS011;29153;42.696;23.218;2022-08-01T02:32:38;2.75;;;2.17;;
43552;SDS011;29153;42.696;23.218;2022-08-01T02:35:11;3.37;;;2.40;;
43552;SDS011;29153;42.696;23.218;2022-08-01T02:37:40;11.08;;;2.15;;
43552;SDS011;29153;42.696;23.218;2022-08-01T02:40:09;3.05;;;1.95;;
43552;SDS011;29153;42.696;23.218;2022-08-01T02:42:39;2.67;;;1.92;;
43552;SDS011;29153;42.696;23.218;2022-08-01T02:45:13;2.65;;;2.15;;
43552;SDS011;29153;42.696;23.218;2022-08-01T02:47:41;8.33;;;2.65;;
43552;SDS011;29153;42.696;23.218;2022-08-01T02:50:10;5.50;;;2.40;;
43552;SDS011;29153;42.696;23.218;2022-08-01T02:52:42;8.50;;;2.50;;
43552;SDS011;29153;42.696;23.218;2022-08-01T02:55:12;4.12;;;2.58;;
43552;SDS011;29153;42.696;23.218;2022-08-01T02:57:41;7.12;;;2.40;;
43552;SDS011;29153;42.696;23.218;2022-08-01T03:00:10;5.17;;;2.47;;
43552;SDS011;29153;42.696;23.218;2022-08-01T03:02:40;5.30;;;2.85;;
43552;SDS011;29153;42.696;23.218;2022-08-01T03:05:10;4.70;;;2.60;;
43552;SDS011;29153;42.696;23.218;2022-08-01T03:07:40;4.08;;;2.72;;
43552;SDS011;29153;42.696;23.218;2022-08-01T03:10:08;6.37;;;2.62;;
43552;SDS011;29153;42.696;23.218;2022-08-01T03:12:37;6.17;;;2.83;;
43552;SDS011;29153;42.696;23.218;2022-08-01T03:15:07;7.25;;;2.90;;
43552;SDS011;29153;42.696;23.218;2022-08-01T03:17:37;3.10;;;2.80;;
43552;SDS011;29153;42.696;23.218;2022-08-01T03:20:07;3.20;;;2.90;;
43552;SDS011;29153;42.696;23.218;2022-08-01T03:22:37;6.58;;;2.65;;
43552;SDS011;29153;42.696;23.218;2022-08-01T03:25:07;4.62;;;3.15;;
43552;SDS011;29153;42.696;23.218;2022-08-01T03:27:36;4.53;;;3.00;;
43552;SDS011;29153;42.696;23.218;2022-08-01T03:30:06;5.62;;;2.80;;
43552;SDS011;29153;42.696;23.218;2022-08-01T03:32:34;4.80;;;3.05;;
43552;SDS011;29153;42.696;23.218;2022-08-01T03:35:02;7.95;;;3.17;;
43552;SDS011;29153;42.696;23.218;2022-08-01T03:37:36;7.58;;;2.98;;
43552;SDS011;29153;42.696;23.218;2022-08-01T03:40:11;5.42;;;3.02;;
43552;SDS011;29153;42.696;23.218;2022-08-01T03:42:52;6.17;;;3.15;;
43552;SDS011;29153;42.696;23.218;2022-08-01T03:45:21;5.87;;;3.08;;
43552;SDS011;29153;42.696;23.218;2022-08-01T03:47:52;11.08;;;3.22;;
43552;SDS011;29153;42.696;23.218;2022-08-01T03:50:20;6.45;;;3.00;;
43552;SDS011;29153;42.696;23.218;2022-08-01T03:52:50;5.92;;;2.98;;
43552;SDS011;29153;42.696;23.218;2022-08-01T03:55:20;6.28;;;3.40;;
43552;SDS011;29153;42.696;23.218;2022-08-01T03:57:50;5.12;;;3.25;;
43552;SDS011;29153;42.696;23.218;2022-08-01T04:00:18;4.55;;;3.10;;
43552;SDS011;29153;42.696;23.218;2022-08-01T04:02:46;14.00;;;4.53;;
43552;SDS011;29153;42.696;23.218;2022-08-01T04:05:16;9.43;;;3.50;;
43552;SDS011;29153;42.696;23.218;2022-08-01T04:07:48;3.87;;;3.05;;
43552;SDS011;29153;42.696;23.218;2022-08-01T04:10:18;7.22;;;3.45;;
43552;SDS011;29153;42.696;23.218;2022-08-01T04:12:46;3.98;;;3.22;;
43552;SDS011;29153;42.696;23.218;2022-08-01T04:15:13;9.70;;;3.52;;
43552;SDS011;29153;42.696;23.218;2022-08-01T04:17:41;5.58;;;3.08;;
43552;SDS011;29153;42.696;23.218;2022-08-01T04:20:09;3.90;;;3.20;;
43552;SDS011;29153;42.696;23.218;2022-08-01T04:22:37;7.30;;;3.15;;
43552;SDS011;29153;42.696;23.218;2022-08-01T04:25:11;4.45;;;2.85;;
43552;SDS011;29153;42.696;23.218;2022-08-01T04:27:40;5.87;;;3.10;;
43552;SDS011;29153;42.696;23.218;2022-08-01T04:30:10;7.75;;;3.08;;
43552;SDS011;29153;42.696;23.218;2022-08-01T04:32:38;4.22;;;2.58;;
43552;SDS011;29153;42.696;23.218;2022-08-01T04:35:08;5.20;;;3.05;;
43552;SDS011;29153;42.696;23.218;2022-08-01T04:37:42;11.28;;;3.15;;
43552;SDS011;29153;42.696;23.218;2022-08-01T04:40:13;8.28;;;3.37;;
43552;SDS011;29153;42.696;23.218;2022-08-01T04:42:43;3.72;;;2.67;;
43552;SDS011;29153;42.696;23.218;2022-08-01T04:45:13;6.62;;;2.60;;
43552;SDS011;29153;42.696;23.218;2022-08-01T04:47:43;4.85;;;3.37;;
43552;SDS011;29153;42.696;23.218;2022-08-01T04:50:18;8.28;;;3.00;;
43552;SDS011;29153;42.696;23.218;2022-08-01T04:52:47;9.60;;;2.45;;
43552;SDS011;29153;42.696;23.218;2022-08-01T04:55:21;4.08;;;2.33;;
43552;SDS011;29153;42.696;23.218;2022-08-01T04:57:46;5.08;;;2.67;;
43552;SDS011;29153;42.696;23.218;2022-08-01T05:00:14;2.80;;;2.60;;
43552;SDS011;29153;42.696;23.218;2022-08-01T05:02:44;6.42;;;2.58;;
43552;SDS011;29153;42.696;23.218;2022-08-01T05:07:46;6.60;;;2.70;;
43552;SDS011;29153;42.696;23.218;2022-08-01T05:10:14;3.77;;;2.22;;
43552;SDS011;29153;42.696;23.218;2022-08-01T05:12:41;7.45;;;2.00;;
43552;SDS011;29153;42.696;23.218;2022-08-01T05:15:09;3.95;;;2.33;;
43552;SDS011;29153;42.696;23.218;2022-08-01T05:17:36;7.83;;;2.37;;
43552;SDS011;29153;42.696;23.218;2022-08-01T05:20:04;3.12;;;2.08;;
43552;SDS011;29153;42.696;23.218;2022-08-01T05:22:32;6.12;;;2.17;;
43552;SDS011;29153;42.696;23.218;2022-08-01T05:25:02;13.20;;;3.27;;
43552;SDS011;29153;42.696;23.218;2022-08-01T05:27:30;8.23;;;2.27;;
43552;SDS011;29153;42.696;23.218;2022-08-01T05:30:06;4.08;;;2.35;;
43552;SDS011;29153;42.696;23.218;2022-08-01T05:32:35;6.45;;;2.35;;
43552;SDS011;29153;42.696;23.218;2022-08-01T05:35:03;5.55;;;2.58;;
43552;SDS011;29153;42.696;23.218;2022-08-01T05:37:33;4.53;;;2.10;;
43552;SDS011;29153;42.696;23.218;2022-08-01T05:40:00;5.45;;;1.60;;
43552;SDS011;29153;42.696;23.218;2022-08-01T05:42:43;13.80;;;2.05;;
43552;SDS011;29153;42.696;23.218;2022-08-01T05:47:28;6.22;;;2.02;;
43552;SDS011;29153;42.696;23.218;2022-08-01T05:49:56;14.45;;;2.30;;
43552;SDS011;29153;42.696;23.218;2022-08-01T05:52:27;20.35;;;2.47;;
43552;SDS011;29153;42.696;23.218;2022-08-01T05:54:58;10.98;;;2.25;;
43552;SDS011;29153;42.696;23.218;2022-08-01T05:57:29;10.13;;;2.50;;
43552;SDS011;29153;42.696;23.218;2022-08-01T05:59:57;13.18;;;2.33;;
43552;SDS011;29153;42.696;23.218;2022-08-01T06:02:24;3.90;;;2.00;;
43552;SDS011;29153;42.696;23.218;2022-08-01T06:04:56;13.83;;;2.40;;
43552;SDS011;29153;42.696;23.218;2022-08-01T06:07:25;3.95;;;2.25;;
43552;SDS011;29153;42.696;23.218;2022-08-01T06:09:52;3.20;;;1.85;;
43552;SDS011;29153;42.696;23.218;2022-08-01T06:12:21;6.42;;;1.98;;
43552;SDS011;29153;42.696;23.218;2022-08-01T06:14:49;7.85;;;1.85;;
43552;SDS011;29153;42.696;23.218;2022-08-01T06:17:17;6.67;;;2.22;;
43552;SDS011;29153;42.696;23.218;2022-08-01T06:19:46;8.68;;;1.90;;
43552;SDS011;29153;42.696;23.218;2022-08-01T06:22:13;3.95;;;1.67;;
43552;SDS011;29153;42.696;23.218;2022-08-01T06:24:41;6.55;;;1.90;;
43552;SDS011;29153;42.696;23.218;2022-08-01T06:27:09;4.60;;;2.05;;
43552;SDS011;29153;42.696;23.218;2022-08-01T06:29:38;5.83;;;1.87;;
43552;SDS011;29153;42.696;23.218;2022-08-01T06:32:05;6.75;;;2.50;;
43552;SDS011;29153;42.696;23.218;2022-08-01T06:34:35;22.87;;;2.40;;
43552;SDS011;29153;42.696;23.218;2022-08-01T06:37:07;5.30;;;1.92;;
43552;SDS011;29153;42.696;23.218;2022-08-01T06:39:34;4.78;;;2.72;;
43552;SDS011;29153;42.696;23.218;2022-08-01T06:42:02;2.75;;;1.98;;
43552;SDS011;29153;42.696;23.218;2022-08-01T06:44:29;8.28;;;2.10;;
43552;SDS011;29153;42.696;23.218;2022-08-01T06:46:58;8.68;;;2.90;;
43552;SDS011;29153;42.696;23.218;2022-08-01T06:49:27;5.65;;;2.58;;
43552;SDS011;29153;42.696;23.218;2022-08-01T06:51:55;4.75;;;2.10;;
43552;SDS011;29153;42.696;23.218;2022-08-01T06:54:24;4.58;;;2.30;;
43552;SDS011;29153;42.696;23.218;2022-08-01T06:56:53;2.60;;;2.33;;
43552;SDS011;29153;42.696;23.218;2022-08-01T06:59:21;8.10;;;2.25;;
43552;SDS011;29153;42.696;23.218;2022-08-01T07:01:48;17.65;;;3.22;;
43552;SDS011;29153;42.696;23.218;2022-08-01T07:04:16;4.97;;;2.70;;
43552;SDS011;29153;42.696;23.218;2022-08-01T07:06:44;5.00;;;2.20;;
43552;SDS011;29153;42.696;23.218;2022-08-01T07:09:11;12.93;;;2.95;;
43552;SDS011;29153;42.696;23.218;2022-08-01T07:11:39;4.45;;;2.37;;
43552;SDS011;29153;42.696;23.218;2022-08-01T07:14:07;6.33;;;2.22;;
43552;SDS011;29153;42.696;23.218;2022-08-01T07:16:34;3.55;;;2.00;;
43552;SDS011;29153;42.696;23.218;2022-08-01T07:19:04;4.95;;;2.83;;
43552;SDS011;29153;42.696;23.218;2022-08-01T07:21:31;3.77;;;1.98;;
43552;SDS011;29153;42.696;23.218;2022-08-01T07:23:59;5.03;;;2.42;;
43552;SDS011;29153;42.696;23.218;2022-08-01T07:26:26;5.10;;;2.37;;
43552;SDS011;29153;42.696;23.218;2022-08-01T07:28:56;7.03;;;2.33;;
43552;SDS011;29153;42.696;23.218;2022-08-01T07:31:23;2.17;;;1.98;;
43552;SDS011;29153;42.696;23.218;2022-08-01T07:33:55;16.65;;;2.85;;
43552;SDS011;29153;42.696;23.218;2022-08-01T07:36:24;3.22;;;2.20;;
43552;SDS011;29153;42.696;23.218;2022-08-01T07:38:52;13.15;;;2.60;;
43552;SDS011;29153;42.696;23.218;2022-08-01T07:41:21;6.70;;;2.60;;
43552;SDS011;29153;42.696;23.218;2022-08-01T07:43:51;9.65;;;2.17;;
43552;SDS011;29153;42.696;23.218;2022-08-01T07:46:19;7.28;;;2.50;;
43552;SDS011;29153;42.696;23.218;2022-08-01T07:48:47;4.85;;;2.15;;
43552;SDS011;29153;42.696;23.218;2022-08-01T07:51:16;4.08;;;2.05;;
43552;SDS011;29153;42.696;23.218;2022-08-01T07:53:46;8.23;;;2.60;;
43552;SDS011;29153;42.696;23.218;2022-08-01T07:56:20;10.72;;;2.55;;
43552;SDS011;29153;42.696;23.218;2022-08-01T07:58:48;4.85;;;2.20;;
43552;SDS011;29153;42.696;23.218;2022-08-01T08:01:18;3.35;;;2.15;;
43552;SDS011;29153;42.696;23.218;2022-08-01T08:03:46;7.37;;;2.30;;
43552;SDS011;29153;42.696;23.218;2022-08-01T08:06:14;3.02;;;1.92;;
43552;SDS011;29153;42.696;23.218;2022-08-01T08:08:58;5.53;;;2.20;;
43552;SDS011;29153;42.696;23.218;2022-08-01T08:11:18;6.37;;;2.10;;
43552;SDS011;29153;42.696;23.218;2022-08-01T08:13:49;4.80;;;2.02;;
43552;SDS011;29153;42.696;23.218;2022-08-01T08:16:16;9.68;;;2.35;;
43552;SDS011;29153;42.696;23.218;2022-08-01T08:18:45;8.03;;;2.05;;
43552;SDS011;29153;42.696;23.218;2022-08-01T08:21:13;4.47;;;2.05;;
43552;SDS011;29153;42.696;23.218;2022-08-01T08:23:42;3.92;;;2.27;;
43552;SDS011;29153;42.696;23.218;2022-08-01T08:26:28;4.30;;;2.33;;
43552;SDS011;29153;42.696;23.218;2022-08-01T08:28:57;9.58;;;2.67;;
43552;SDS011;29153;42.696;23.218;2022-08-01T08:31:25;5.30;;;2.25;;
43552;SDS011;29153;42.696;23.218;2022-08-01T08:33:52;5.20;;;2.10;;
43552;SDS011;29153;42.696;23.218;2022-08-01T08:36:20;7.00;;;1.92;;
43552;SDS011;29153;42.696;23.218;2022-08-01T08:38:48;3.15;;;1.87;;
43552;SDS011;29153;42.696;23.218;2022-08-01T08:41:15;7.50;;;1.98;;
43552;SDS011;29153;42.696;23.218;2022-08-01T08:43:43;3.98;;;2.12;;
43552;SDS011;29153;42.696;23.218;2022-08-01T08:46:11;4.15;;;2.10;;
43552;SDS011;29153;42.696;23.218;2022-08-01T08:48:40;6.80;;;1.85;;
43552;SDS011;29153;42.696;23.218;2022-08-01T08:51:08;4.90;;;1.87;;
43552;SDS011;29153;42.696;23.218;2022-08-01T08:53:38;2.12;;;1.60;;
43552;SDS011;29153;42.696;23.218;2022-08-01T08:56:10;3.42;;;1.60;;
43552;SDS011;29153;42.696;23.218;2022-08-01T08:58:40;5.30;;;1.90;;
43552;SDS011;29153;42.696;23.218;2022-08-01T09:01:09;3.83;;;1.52;;
43552;SDS011;29153;42.696;23.218;2022-08-01T09:03:38;4.17;;;2.02;;
43552;SDS011;29153;42.696;23.218;2022-08-01T09:06:06;2.08;;;1.87;;
43552;SDS011;29153;42.696;23.218;2022-08-01T09:08:34;2.58;;;1.85;;
43552;SDS011;29153;42.696;23.218;2022-08-01T09:11:01;4.45;;;2.20;;
43552;SDS011;29153;42.696;23.218;2022-08-01T09:13:30;5.80;;;1.87;;
43552;SDS011;29153;42.696;23.218;2022-08-01T09:15:57;8.05;;;1.82;;
43552;SDS011;29153;42.696;23.218;2022-08-01T09:18:35;2.20;;;1.92;;
43552;SDS011;29153;42.696;23.218;2022-08-01T09:21:09;4.95;;;1.80;;
43552;SDS011;29153;42.696;23.218;2022-08-01T09:26:11;11.05;;;2.05;;
43552;SDS011;29153;42.696;23.218;2022-08-01T09:28:41;3.90;;;1.87;;
43552;SDS011;29153;42.696;23.218;2022-08-01T09:31:14;2.67;;;1.92;;
43552;SDS011;29153;42.696;23.218;2022-08-01T09:33:50;5.10;;;2.17;;
43552;SDS011;29153;42.696;23.218;2022-08-01T09:36:42;1.80;;;1.70;;
43552;SDS011;29153;42.696;23.218;2022-08-01T09:38:52;2.67;;;1.70;;
43552;SDS011;29153;42.696;23.218;2022-08-01T09:41:30;4.05;;;2.00;;
43552;SDS011;29153;42.696;23.218;2022-08-01T09:43:57;3.55;;;2.20;;
43552;SDS011;29153;42.696;23.218;2022-08-01T09:46:25;7.60;;;2.27;;
43552;SDS011;29153;42.696;23.218;2022-08-01T09:48:56;7.50;;;2.22;;
43552;SDS011;29153;42.696;23.218;2022-08-01T09:51:32;6.97;;;2.33;;
43552;SDS011;29153;42.696;23.218;2022-08-01T09:54:02;2.85;;;1.95;;
43552;SDS011;29153;42.696;23.218;2022-08-01T09:56:38;2.75;;;2.20;;
43552;SDS011;29153;42.696;23.218;2022-08-01T09:59:10;6.42;;;2.17;;
43552;SDS011;29153;42.696;23.218;2022-08-01T10:01:42;3.67;;;2.08;;
43552;SDS011;29153;42.696;23.218;2022-08-01T10:04:21;9.30;;;1.98;;
43552;SDS011;29153;42.696;23.218;2022-08-01T10:06:50;11.57;;;2.20;;
43552;SDS011;29153;42.696;23.218;2022-08-01T10:09:27;6.72;;;2.17;;
43552;SDS011;29153;42.696;23.218;2022-08-01T10:11:56;5.78;;;2.00;;
43552;SDS011;29153;42.696;23.218;2022-08-01T10:14:26;3.27;;;1.92;;
43552;SDS011;29153;42.696;23.218;2022-08-01T10:17:00;5.28;;;1.70;;
43552;SDS011;29153;42.696;23.218;2022-08-01T10:19:26;2.00;;;1.80;;
43552;SDS011;29153;42.696;23.218;2022-08-01T10:21:55;2.62;;;1.90;;
43552;SDS011;29153;42.696;23.218;2022-08-01T10:24:25;3.95;;;1.90;;
43552;SDS011;29153;42.696;23.218;2022-08-01T10:26:55;8.05;;;1.90;;
43552;SDS011;29153;42.696;23.218;2022-08-01T10:29:29;4.92;;;2.17;;
43552;SDS011;29153;42.696;23.218;2022-08-01T10:31:59;4.78;;;1.30;;
43552;SDS011;29153;42.696;23.218;2022-08-01T10:34:27;7.10;;;1.90;;
43552;SDS011;29153;42.696;23.218;2022-08-01T10:36:56;6.03;;;1.90;;
43552;SDS011;29153;42.696;23.218;2022-08-01T10:39:24;6.45;;;1.80;;
43552;SDS011;29153;42.696;23.218;2022-08-01T10:41:54;3.15;;;1.80;;
43552;SDS011;29153;42.696;23.218;2022-08-01T10:44:27;11.22;;;2.27;;
43552;SDS011;29153;42.696;23.218;2022-08-01T10:46:54;8.40;;;1.90;;
43552;SDS011;29153;42.696;23.218;2022-08-01T10:49:23;6.65;;;2.10;;
43552;SDS011;29153;42.696;23.218;2022-08-01T10:51:53;5.33;;;1.60;;
43552;SDS011;29153;42.696;23.218;2022-08-01T10:54:24;4.65;;;1.80;;
43552;SDS011;29153;42.696;23.218;2022-08-01T10:56:52;12.40;;;2.25;;
43552;SDS011;29153;42.696;23.218;2022-08-01T10:59:22;5.30;;;1.80;;
43552;SDS011;29153;42.696;23.218;2022-08-01T11:02:03;10.75;;;2.37;;
43552;SDS011;29153;42.696;23.218;2022-08-01T11:04:39;6.10;;;1.82;;
43552;SDS011;29153;42.696;23.218;2022-08-01T11:07:16;3.17;;;1.85;;
43552;SDS011;29153;42.696;23.218;2022-08-01T11:09:47;4.62;;;1.47;;
43552;SDS011;29153;42.696;23.218;2022-08-01T11:12:18;3.37;;;1.82;;
43552;SDS011;29153;42.696;23.218;2022-08-01T11:17:45;2.17;;;1.65;;
43552;SDS011;29153;42.696;23.218;2022-08-01T11:38:48;4.90;;;1.90;;
43552;SDS011;29153;42.696;23.218;2022-08-01T11:41:25;10.75;;;1.90;;
43552;SDS011;29153;42.696;23.218;2022-08-01T11:52:24;9.85;;;2.12;;
43552;SDS011;29153;42.696;23.218;2022-08-01T11:54:56;2.80;;;2.25;;
43552;SDS011;29153;42.696;23.218;2022-08-01T11:57:25;2.20;;;2.00;;
43552;SDS011;29153;42.696;23.218;2022-08-01T11:59:59;4.37;;;1.90;;
43552;SDS011;29153;42.696;23.218;2022-08-01T12:02:29;5.12;;;2.10;;
43552;SDS011;29153;42.696;23.218;2022-08-01T12:04:59;3.85;;;1.98;;
43552;SDS011;29153;42.696;23.218;2022-08-01T12:07:29;3.12;;;2.00;;
43552;SDS011;29153;42.696;23.218;2022-08-01T12:10:06;5.62;;;2.15;;
43552;SDS011;29153;42.696;23.218;2022-08-01T12:12:35;2.37;;;2.17;;
43552;SDS011;29153;42.696;23.218;2022-08-01T12:15:05;3.33;;;1.80;;
43552;SDS011;29153;42.696;23.218;2022-08-01T12:17:36;11.33;;;2.10;;
43552;SDS011;29153;42.696;23.218;2022-08-01T12:20:06;5.60;;;1.75;;
43552;SDS011;29153;42.696;23.218;2022-08-01T12:22:36;2.35;;;2.15;;
43552;SDS011;29153;42.696;23.218;2022-08-01T12:27:38;2.67;;;1.80;;
43552;SDS011;29153;42.696;23.218;2022-08-01T12:30:10;6.35;;;2.75;;
43552;SDS011;29153;42.696;23.218;2022-08-01T12:32:39;8.85;;;2.80;;
43552;SDS011;29153;42.696;23.218;2022-08-01T12:35:09;6.15;;;2.30;;
43552;SDS011;29153;42.696;23.218;2022-08-01T12:37:45;2.05;;;1.90;;
43552;SDS011;29153;42.696;23.218;2022-08-01T12:40:18;2.00;;;1.80;;
43552;SDS011;29153;42.696;23.218;2022-08-01T12:42:56;7.60;;;2.00;;
43552;SDS011;29153;42.696;23.218;2022-08-01T12:45:24;5.12;;;2.20;;
43552;SDS011;29153;42.696;23.218;2022-08-01T12:47:57;4.00;;;2.02;;
43552;SDS011;29153;42.696;23.218;2022-08-01T12:50:28;11.45;;;2.45;;
43552;SDS011;29153;42.696;23.218;2022-08-01T12:52:56;2.62;;;1.62;;
43552;SDS011;29153;42.696;23.218;2022-08-01T12:55:25;2.65;;;1.70;;
43552;SDS011;29153;42.696;23.218;2022-08-01T12:58:03;4.92;;;1.67;;
43552;SDS011;29153;42.696;23.218;2022-08-01T13:00:33;3.95;;;2.25;;
43552;SDS011;29153;42.696;23.218;2022-08-01T13:03:08;4.60;;;1.90;;
43552;SDS011;29153;42.696;23.218;2022-08-01T13:05:53;3.50;;;2.10;;
43552;SDS011;29153;42.696;23.218;2022-08-01T13:08:30;2.42;;;1.70;;
43552;SDS011;29153;42.696;23.218;2022-08-01T13:11:03;6.00;;;1.82;;
43552;SDS011;29153;42.696;23.218;2022-08-01T13:16:17;7.42;;;1.70;;
43552;SDS011;29153;42.696;23.218;2022-08-01T13:18:50;2.60;;;1.67;;
43552;SDS011;29153;42.696;23.218;2022-08-01T13:21:19;3.65;;;2.15;;
43552;SDS011;29153;42.696;23.218;2022-08-01T13:24:01;3.50;;;1.90;;
43552;SDS011;29153;42.696;23.218;2022-08-01T13:29:18;4.60;;;2.00;;
43552;SDS011;29153;42.696;23.218;2022-08-01T13:31:48;2.40;;;1.73;;
43552;SDS011;29153;42.696;23.218;2022-08-01T13:34:16;3.17;;;2.10;;
43552;SDS011;29153;42.696;23.218;2022-08-01T13:36:44;2.58;;;1.80;;
43552;SDS011;29153;42.696;23.218;2022-08-01T13:39:11;2.80;;;1.82;;
43552;SDS011;29153;42.696;23.218;2022-08-01T13:41:57;5.30;;;1.87;;
43552;SDS011;29153;42.696;23.218;2022-08-01T13:44:25;1.42;;;1.32;;
43552;SDS011;29153;42.696;23.218;2022-08-01T13:46:52;8.00;;;2.15;;
43552;SDS011;29153;42.696;23.218;2022-08-01T13:49:21;1.72;;;1.50;;
43552;SDS011;29153;42.696;23.218;2022-08-01T13:51:54;9.30;;;2.33;;
43552;SDS011;29153;42.696;23.218;2022-08-01T13:54:19;8.18;;;1.52;;
43552;SDS011;29153;42.696;23.218;2022-08-01T13:56:47;11.57;;;2.10;;
43552;SDS011;29153;42.696;23.218;2022-08-01T13:59:14;3.58;;;2.25;;
43552;SDS011;29153;42.696;23.218;2022-08-01T14:01:42;17.05;;;2.87;;
43552;SDS011;29153;42.696;23.218;2022-08-01T14:04:09;10.95;;;1.65;;
43552;SDS011;29153;42.696;23.218;2022-08-01T14:06:37;7.80;;;2.83;;
43552;SDS011;29153;42.696;23.218;2022-08-01T14:09:05;6.30;;;1.95;;
43552;SDS011;29153;42.696;23.218;2022-08-01T14:11:33;2.52;;;2.17;;
43552;SDS011;29153;42.696;23.218;2022-08-01T14:14:01;9.33;;;2.05;;
43552;SDS011;29153;42.696;23.218;2022-08-01T14:16:28;3.05;;;1.90;;
43552;SDS011;29153;42.696;23.218;2022-08-01T14:18:56;6.87;;;2.20;;
43552;SDS011;29153;42.696;23.218;2022-08-01T14:21:23;4.80;;;2.00;;
43552;SDS011;29153;42.696;23.218;2022-08-01T14:23:51;3.37;;;1.75;;
43552;SDS011;29153;42.696;23.218;2022-08-01T14:26:18;5.58;;;1.87;;
43552;SDS011;29153;42.696;23.218;2022-08-01T14:28:46;2.52;;;1.55;;
43552;SDS011;29153;42.696;23.218;2022-08-01T14:31:14;3.95;;;1.60;;
43552;SDS011;29153;42.696;23.218;2022-08-01T14:33:41;6.20;;;1.72;;
43552;SDS011;29153;42.696;23.218;2022-08-01T14:36:09;2.47;;;1.70;;
43552;SDS011;29153;42.696;23.218;2022-08-01T14:38:36;5.17;;;1.60;;
43552;SDS011;29153;42.696;23.218;2022-08-01T14:41:04;3.37;;;1.50;;
43552;SDS011;29153;42.696;23.218;2022-08-01T14:43:32;1.50;;;1.27;;
43552;SDS011;29153;42.696;23.218;2022-08-01T14:45:59;1.85;;;1.72;;
43552;SDS011;29153;42.696;23.218;2022-08-01T14:48:28;1.80;;;1.70;;
43552;SDS011;29153;42.696;23.218;2022-08-01T14:50:56;2.40;;;2.00;;
43552;SDS011;29153;42.696;23.218;2022-08-01T14:53:26;1.42;;;1.30;;
43552;SDS011;29153;42.696;23.218;2022-08-01T14:55:54;4.12;;;2.92;;
43552;SDS011;29153;42.696;23.218;2022-08-01T14:58:21;2.17;;;1.95;;
43552;SDS011;29153;42.696;23.218;2022-08-01T15:00:49;1.77;;;1.67;;
43552;SDS011;29153;42.696;23.218;2022-08-01T15:03:18;2.25;;;1.40;;
43552;SDS011;29153;42.696;23.218;2022-08-01T15:05:46;2.60;;;2.40;;
43552;SDS011;29153;42.696;23.218;2022-08-01T15:08:13;2.60;;;1.50;;
43552;SDS011;29153;42.696;23.218;2022-08-01T15:10:41;3.35;;;1.40;;
43552;SDS011;29153;42.696;23.218;2022-08-01T15:13:08;1.50;;;1.40;;
43552;SDS011;29153;42.696;23.218;2022-08-01T15:15:36;1.75;;;1.50;;
43552;SDS011;29153;42.696;23.218;2022-08-01T15:18:04;3.95;;;1.55;;
43552;SDS011;29153;42.696;23.218;2022-08-01T15:20:31;1.82;;;1.35;;
43552;SDS011;29153;42.696;23.218;2022-08-01T15:22:59;2.22;;;1.50;;
43552;SDS011;29153;42.696;23.218;2022-08-01T15:25:27;3.30;;;1.62;;
43552;SDS011;29153;42.696;23.218;2022-08-01T15:27:54;1.42;;;1.32;;
43552;SDS011;29153;42.696;23.218;2022-08-01T15:30:22;2.67;;;1.30;;
43552;SDS011;29153;42.696;23.218;2022-08-01T15:32:50;1.75;;;1.62;;
43552;SDS011;29153;42.696;23.218;2022-08-01T15:35:17;1.35;;;1.20;;
43552;SDS011;29153;42.696;23.218;2022-08-01T15:37:45;2.87;;;1.27;;